Back to Top

Current Local METAR Station Weather Reports...

Local METAR Reports

Local METAR Reports

 

EGCN - Doncaster Sheffield Airport, United Kingdom
Distance from station: E 20mi, 32km
Updated: Sat, 17-Aug-2019 12:09pm BST
unable to load EGCN data RC=
unable to load EGCN data RC=
 
EGNM - Leeds Bradford International, United Kingdom
Distance from station: NNW 24mi, 39km
Updated: Sat, 17-Aug-2019 11:50am BST
Partly Cloudy
Partly Cloudy
 Wind from W
Wind: W 17 mph , 28 km/h
Temperature: 17°C
Dew Point: 9°C
Humidity: 59%
Barometer: 1000 hPa
Clouds: Partly Cloudy
Visibility: 6 miles , 10 km
Cloud details: Partly Cloudy 549 m
2019/08/17 10:50 EGNM 171050Z 26015KT 230V290 9999 SCT018 17/09 Q1000
 
EGCC - Manchester International, United Kingdom
Distance from station: WSW 35mi, 56km
Updated: Sat, 17-Aug-2019 11:50am BST
Partly Cloudy
Partly Cloudy
 Wind from W
Wind: W 7 mph , 11 km/h
Temperature: 17°C
Dew Point: 11°C
Humidity: 68%
Barometer: 1001 hPa
Clouds: Partly Cloudy
Visibility: 6 miles , 10 km
Cloud details: Partly Cloudy 1097 m
2019/08/17 10:50 EGCC 171050Z 26006KT 220V310 9999 SCT036 17/11 Q1001
EGXU - Linton-On-Ouse RAF, United Kingdom
Distance from station: NNE 37mi, 60km
Updated: Sat, 17-Aug-2019 11:50am BST
Few Clouds
Few Clouds
 Wind from WSW
Wind: WSW 20 mph , 31 km/h
Temperature: 18°C
Dew Point: 11°C
Humidity: 64%
Barometer: 999 hPa
Clouds: Few Clouds
Visibility: 6 miles , 10 km
Cloud details: Few Clouds 1067 m
2019/08/17 10:50 EGXU 171050Z AUTO 25017KT 9999 // FEW035/// 18/11 Q0999
 
EGXP - Scampton RAF, United Kingdom
Distance from station: ESE 41mi, 66km
Updated: Sat, 17-Aug-2019 10:50am BST
NOT Current
Mostly Cloudy
Mostly Cloudy
 Wind from WSW
Wind: WSW 18 mph , 30 km/h
Temperature: 19°C
Dew Point: 14°C
Humidity: 73%
Barometer: 1001 hPa
Clouds: Mostly Cloudy
Visibility: 6 miles , 10 km
Cloud details: Mostly Cloudy 640 m
2019/08/17 09:50 EGXP 170950Z AUTO 25016KT 9999 // BKN021/// 19/14 Q1001
EGNJ - Humberside Airport, United Kingdom
Distance from station: E 46mi, 74km
Updated: Sat, 17-Aug-2019 11:50am BST
Light rain, Showers, Mostly cloudy
Light rain, Showers, Mostly cloudy
 Wind from WSW
Wind: WSW 21 mph , 33 km/h
Temperature: 19°C
Dew Point: 10°C
Humidity: 56%
Barometer: 1001 hPa
Summary: Light rain, Showers
Clouds: Mostly Cloudy
Visibility: 6 miles , 10 km
Cloud details: Partly Cloudy 671 m
Mostly Cloudy 945 m
2019/08/17 10:50 EGNJ 171050Z 24018KT 200V270 9999 -SHRA SCT022 BKN031 19/10 Q1001
 
EGXW - Waddington RAF, United Kingdom
Distance from station: ESE 46mi, 74km
Updated: Sat, 17-Aug-2019 11:50am BST
Partly Cloudy
Partly Cloudy
 Wind from WSW
Wind: WSW 20 mph , 31 km/h
Temperature: 20°C
Dew Point: 11°C
Humidity: 56%
Barometer: 1001 hPa
Clouds: Partly Cloudy
Visibility: 6 miles , 10 km
Cloud details: Partly Cloudy 975 m
2019/08/17 10:50 EGXW 171050Z 24017KT 9999 SCT032 20/11 Q1001 NOSIG RMK BLU BLU
EGXZ - Topcliffe RAF, United Kingdom
Distance from station: N 46mi, 75km
Updated: Sat, 17-Aug-2019 11:50am BST
Partly Cloudy
Partly Cloudy
 Wind from WSW
Wind: WSW 14 mph , 22 km/h
Temperature: 18°C
Dew Point: 11°C
Humidity: 64%
Barometer: 1000 hPa
Clouds: Partly Cloudy
Visibility: 6 miles , 10 km
Cloud details: Partly Cloudy 1524 m
2019/08/17 10:50 EGXZ 171050Z AUTO 25012KT 9999 SCT050/// 18/11 Q1000 RERA
 
EGXV - Leconfield, United Kingdom
Distance from station: ENE 48mi, 77km
Updated: Sat, 17-Aug-2019 11:50am BST
Partly Cloudy
Partly Cloudy
 Wind from WSW
Wind: WSW 15 mph , 24 km/h
Temperature: 20°C
Dew Point: 13°C
Humidity: 64%
Barometer: 1000 hPa
Clouds: Partly Cloudy
Visibility: 6 miles , 10 km
Cloud details: Few Clouds 792 m
Partly Cloudy 1829 m
2019/08/17 10:50 EGXV 171050Z AUTO 25013KT 9999 FEW026/// SCT060/// 20/13 Q1000
EGNX - East Midlands, United Kingdom
Distance from station: S 50mi, 80km
Updated: Sat, 17-Aug-2019 11:50am BST
Partly Cloudy
Partly Cloudy
 Wind from WSW
Wind: WSW 21 mph , 33 km/h
Temperature: 18°C
Dew Point: 11°C
Humidity: 64%
Barometer: 1002 hPa
Clouds: Partly Cloudy
Visibility: 6 miles , 10 km
Cloud details: Few Clouds 823 m
Partly Cloudy 1280 m
2019/08/17 10:50 EGNX 171050Z 25018KT 9999 FEW027 SCT042 18/11 Q1002

Metar display script from Saratoga-Weather.org

Data updates at regular intervals.